Time;durP1;ratioP1;P1;durP2;ratioP2;P2;SDS_P1;SDS_P2;PMS_P1;PMS_P2;Temp;Humidity;BMP_temperature;BMP_pressure;BME280_temperature;BME280_humidity;BME280_pressure;Samples;Min_cycle;Max_cycle;Signal;HPM_P1;HPM_P2
2022/04/19 00:00:53;;;;;;;13.35;9.57;;;;;;;;;;5063025;28;20041;-69
2022/04/19 00:03:19;;;;;;;18.08;9.07;;;;;;;;;;5059276;28;20048;-67
2022/04/19 00:05:51;;;;;;;14.30;9.25;;;;;;;;;;5056833;28;20505;-68
2022/04/19 00:08:17;;;;;;;13.65;9.32;;;;;;;;;;5058076;28;20044;-67
2022/04/19 00:10:44;;;;;;;13.85;9.90;;;;;;;;;;5040609;28;20432;-68
2022/04/19 00:13:11;;;;;;;14.52;9.98;;;;;;;;;;5036715;28;20102;-68
2022/04/19 00:15:38;;;;;;;13.85;9.55;;;;;;;;;;5073390;28;20037;-68
2022/04/19 00:18:08;;;;;;;12.70;9.50;;;;;;;;;;5050306;28;20049;-67
2022/04/19 00:20:35;;;;;;;12.05;9.10;;;;;;;;;;5068196;28;20048;-68
2022/04/19 00:23:04;;;;;;;13.23;9.23;;;;;;;;;;5052733;28;20462;-68
2022/04/19 00:25:31;;;;;;;13.10;9.57;;;;;;;;;;5062450;28;20056;-68
2022/04/19 00:28:00;;;;;;;14.05;9.45;;;;;;;;;;5058194;28;20136;-68
2022/04/19 00:30:26;;;;;;;12.35;9.15;;;;;;;;;;5062329;28;20051;-66
2022/04/19 00:32:52;;;;;;;12.23;9.02;;;;;;;;;;5073452;28;20055;-66
2022/04/19 00:35:18;;;;;;;13.48;9.75;;;;;;;;;;5056237;28;20485;-68
2022/04/19 00:37:44;;;;;;;13.43;9.43;;;;;;;;;;5061288;28;20029;-68
2022/04/19 00:40:14;;;;;;;14.60;10.60;;;;;;;;;;5054210;28;20090;-67
2022/04/19 00:42:40;;;;;;;13.85;9.70;;;;;;;;;;5044600;28;20037;-68
2022/04/19 00:45:06;;;;;;;15.43;9.85;;;;;;;;;;5068320;28;20482;-68
2022/04/19 00:47:33;;;;;;;20.00;10.30;;;;;;;;;;5063216;28;20041;-68
2022/04/19 00:50:02;;;;;;;16.08;10.13;;;;;;;;;;5051157;28;20040;-68
2022/04/19 00:52:40;;;;;;;15.40;9.95;;;;;;;;;;5069968;28;20048;-68
2022/04/19 00:55:10;;;;;;;15.27;10.38;;;;;;;;;;5062059;28;20175;-67
2022/04/19 00:57:40;;;;;;;15.27;10.60;;;;;;;;;;5056398;28;20386;-67
2022/04/19 01:00:08;;;;;;;15.32;10.00;;;;;;;;;;5036132;28;20047;-67
2022/04/19 01:02:44;;;;;;;15.68;10.20;;;;;;;;;;5055110;28;20404;-67
2022/04/19 01:05:11;;;;;;;16.00;10.25;;;;;;;;;;5064377;28;20055;-67
2022/04/19 01:07:41;;;;;;;15.18;10.07;;;;;;;;;;5074389;28;20044;-67
2022/04/19 01:10:07;;;;;;;14.30;10.35;;;;;;;;;;5050160;28;20041;-67
2022/04/19 01:15:19;;;;;;;17.00;9.93;;;;;;;;;;5061434;28;20493;-67
2022/04/19 01:17:45;;;;;;;14.05;10.07;;;;;;;;;;5062121;28;20122;-67
2022/04/19 01:20:12;;;;;;;17.83;10.05;;;;;;;;;;5073217;28;20090;-67
2022/04/19 01:22:49;;;;;;;13.10;10.68;;;;;;;;;;5048152;28;20071;-67
2022/04/19 01:25:18;;;;;;;14.70;10.18;;;;;;;;;;5051349;28;20137;-67
2022/04/19 01:27:48;;;;;;;15.80;10.95;;;;;;;;;;5053585;28;20484;-67
2022/04/19 01:30:16;;;;;;;13.88;9.10;;;;;;;;;;5062685;28;20149;-67
2022/04/19 01:32:42;;;;;;;12.82;10.13;;;;;;;;;;5058728;28;20522;-67
2022/04/19 01:35:15;;;;;;;13.90;9.20;;;;;;;;;;5048477;28;20568;-67
2022/04/19 01:37:43;;;;;;;13.73;9.60;;;;;;;;;;5069482;28;20434;-67
2022/04/19 01:40:18;;;;;;;14.52;10.25;;;;;;;;;;5063220;28;20392;-67
2022/04/19 01:42:48;;;;;;;12.43;9.80;;;;;;;;;;5055275;28;20037;-67
2022/04/19 01:45:18;;;;;;;16.30;10.35;;;;;;;;;;5054840;28;20037;-67
2022/04/19 01:47:44;;;;;;;16.15;10.40;;;;;;;;;;5050277;28;20072;-67
2022/04/19 01:50:12;;;;;;;13.48;10.00;;;;;;;;;;5057912;28;20070;-67
2022/04/19 01:52:48;;;;;;;14.05;10.40;;;;;;;;;;5036979;28;20119;-67
2022/04/19 01:55:15;;;;;;;17.63;10.82;;;;;;;;;;5066283;28;20389;-67
2022/04/19 01:57:45;;;;;;;13.65;10.25;;;;;;;;;;5072510;28;20051;-67
2022/04/19 02:00:12;;;;;;;14.68;10.98;;;;;;;;;;5060433;28;20044;-67
2022/04/19 02:02:38;;;;;;;14.27;10.68;;;;;;;;;;5071319;28;20094;-67
2022/04/19 02:05:05;;;;;;;17.92;11.38;;;;;;;;;;5070990;28;20036;-67
2022/04/19 02:07:32;;;;;;;16.60;11.00;;;;;;;;;;5081895;28;20079;-67
2022/04/19 02:10:04;;;;;;;19.60;12.65;;;;;;;;;;5058960;28;20079;-68
2022/04/19 02:12:44;;;;;;;19.73;13.25;;;;;;;;;;5044731;28;20050;-68
2022/04/19 02:15:11;;;;;;;19.70;12.40;;;;;;;;;;5062621;28;20063;-67
2022/04/19 02:17:50;;;;;;;19.88;13.80;;;;;;;;;;5055619;28;20033;-68
2022/04/19 02:20:17;;;;;;;21.73;13.30;;;;;;;;;;5071083;28;20039;-67
2022/04/19 02:22:44;;;;;;;22.38;14.18;;;;;;;;;;5063203;28;20045;-68
2022/04/19 02:25:11;;;;;;;18.95;12.77;;;;;;;;;;5060658;28;20098;-67
2022/04/19 02:27:39;;;;;;;19.63;13.00;;;;;;;;;;5072690;28;20482;-67
2022/04/19 02:30:13;;;;;;;20.02;12.25;;;;;;;;;;5071775;28;20052;-67
2022/04/19 02:32:40;;;;;;;19.25;12.35;;;;;;;;;;5051362;28;20048;-67
2022/04/19 02:35:06;;;;;;;19.75;13.15;;;;;;;;;;5058880;28;20373;-67
2022/04/19 02:37:39;;;;;;;16.00;11.48;;;;;;;;;;5060932;28;20037;-67
2022/04/19 02:40:11;;;;;;;16.30;11.13;;;;;;;;;;5049439;28;20396;-67
2022/04/19 02:42:47;;;;;;;20.20;12.88;;;;;;;;;;5075934;28;20051;-67
2022/04/19 02:45:13;;;;;;;20.58;12.38;;;;;;;;;;5066319;28;20053;-67
2022/04/19 02:47:42;;;;;;;21.65;13.10;;;;;;;;;;5067378;28;20036;-67
2022/04/19 02:50:09;;;;;;;13.90;11.10;;;;;;;;;;5063980;28;20083;-67
2022/04/19 02:52:38;;;;;;;17.83;11.60;;;;;;;;;;5049060;28;20094;-67
2022/04/19 02:55:07;;;;;;;15.88;10.80;;;;;;;;;;5070741;28;20498;-67
2022/04/19 02:57:33;;;;;;;17.30;11.52;;;;;;;;;;5066754;28;20040;-67
2022/04/19 03:00:00;;;;;;;17.88;11.20;;;;;;;;;;5073473;28;20044;-67
2022/04/19 03:02:26;;;;;;;19.08;11.70;;;;;;;;;;5073132;28;20127;-67
2022/04/19 03:04:58;;;;;;;14.82;11.82;;;;;;;;;;5071279;28;20191;-67
2022/04/19 03:07:24;;;;;;;15.45;11.15;;;;;;;;;;5073613;28;20045;-67
2022/04/19 03:09:50;;;;;;;16.70;10.85;;;;;;;;;;5062584;28;20044;-67
2022/04/19 03:12:16;;;;;;;15.55;10.52;;;;;;;;;;5059355;28;20128;-67
2022/04/19 03:14:43;;;;;;;14.02;10.18;;;;;;;;;;5063785;28;20044;-66
2022/04/19 03:17:11;;;;;;;17.65;10.25;;;;;;;;;;5058300;28;20496;-67
2022/04/19 03:19:38;;;;;;;14.60;10.52;;;;;;;;;;5059141;28;20080;-66
2022/04/19 03:22:04;;;;;;;14.20;9.57;;;;;;;;;;5073474;28;20052;-67
2022/04/19 03:29:59;;;;;;;15.88;10.50;;;;;;;;;;5076369;28;20053;-67
2022/04/19 03:32:25;;;;;;;15.88;10.80;;;;;;;;;;5059277;28;20079;-67
2022/04/19 03:34:54;;;;;;;15.98;10.82;;;;;;;;;;5070484;28;20104;-67
2022/04/19 03:37:20;;;;;;;16.60;11.00;;;;;;;;;;5063270;28;20040;-67
2022/04/19 03:39:49;;;;;;;15.73;10.90;;;;;;;;;;5069080;28;20124;-67
2022/04/19 03:42:16;;;;;;;15.05;10.55;;;;;;;;;;5069133;28;20071;-67
2022/04/19 03:44:42;;;;;;;17.48;10.88;;;;;;;;;;5057549;28;20066;-67
2022/04/19 03:47:08;;;;;;;15.77;10.93;;;;;;;;;;5057404;28;20043;-67
2022/04/19 03:49:35;;;;;;;15.02;10.45;;;;;;;;;;5062414;28;20048;-67
2022/04/19 03:52:01;;;;;;;16.83;11.55;;;;;;;;;;5069814;28;20080;-67
2022/04/19 03:54:34;;;;;;;17.65;11.35;;;;;;;;;;5072693;28;20047;-67
2022/04/19 03:57:00;;;;;;;15.18;10.82;;;;;;;;;;5074170;28;20102;-67
2022/04/19 03:59:26;;;;;;;18.13;11.07;;;;;;;;;;5048386;28;20064;-67
2022/04/19 04:01:53;;;;;;;15.32;10.52;;;;;;;;;;5068346;28;20044;-67
2022/04/19 04:04:22;;;;;;;16.73;11.13;;;;;;;;;;5070252;28;20041;-67
2022/04/19 04:06:51;;;;;;;14.38;10.40;;;;;;;;;;5074933;28;20044;-67
2022/04/19 04:09:17;;;;;;;16.00;10.65;;;;;;;;;;5078898;28;20067;-67
2022/04/19 04:11:43;;;;;;;13.55;10.23;;;;;;;;;;5076318;28;20101;-67
2022/04/19 04:14:09;;;;;;;14.82;10.43;;;;;;;;;;5076485;28;20417;-67
2022/04/19 04:16:35;;;;;;;14.13;9.98;;;;;;;;;;5075114;28;20044;-67
2022/04/19 04:19:02;;;;;;;17.05;11.52;;;;;;;;;;5074883;28;20178;-67
2022/04/19 04:21:28;;;;;;;18.10;11.35;;;;;;;;;;5062870;28;20052;-67
2022/04/19 04:23:54;;;;;;;18.05;10.20;;;;;;;;;;5062963;28;20044;-67
2022/04/19 04:26:29;;;;;;;15.05;10.40;;;;;;;;;;5061540;28;20497;-67
2022/04/19 04:28:55;;;;;;;17.77;10.47;;;;;;;;;;5062983;28;20052;-66
2022/04/19 04:31:24;;;;;;;16.55;11.00;;;;;;;;;;5069859;28;20620;-66
2022/04/19 04:33:50;;;;;;;16.42;9.82;;;;;;;;;;5047016;28;20129;-67
2022/04/19 04:36:17;;;;;;;15.48;11.05;;;;;;;;;;5059724;28;20443;-67
2022/04/19 04:38:43;;;;;;;15.57;10.95;;;;;;;;;;5061597;28;20051;-67
2022/04/19 04:41:19;;;;;;;16.08;10.75;;;;;;;;;;5065955;28;20488;-67
2022/04/19 04:43:54;;;;;;;15.90;11.32;;;;;;;;;;5065821;28;20067;-67
2022/04/19 04:51:56;;;;;;;14.38;10.75;;;;;;;;;;5071201;28;20128;-67
2022/04/19 04:54:22;;;;;;;16.88;11.25;;;;;;;;;;5067987;28;20044;-66
2022/04/19 04:56:52;;;;;;;18.10;11.23;;;;;;;;;;5058146;28;20056;-67
2022/04/19 04:59:18;;;;;;;15.80;11.50;;;;;;;;;;5063355;28;20033;-66
2022/04/19 05:01:47;;;;;;;17.13;10.50;;;;;;;;;;5058835;28;20044;-66
2022/04/19 05:04:13;;;;;;;16.30;11.70;;;;;;;;;;5075976;28;20048;-67
2022/04/19 05:06:42;;;;;;;19.08;11.18;;;;;;;;;;5067868;28;20039;-67
2022/04/19 05:09:11;;;;;;;15.02;11.20;;;;;;;;;;5051940;28;20114;-66
2022/04/19 05:11:37;;;;;;;17.45;11.43;;;;;;;;;;5061959;28;20116;-66
2022/04/19 05:14:04;;;;;;;17.05;11.45;;;;;;;;;;5054178;28;20045;-67
2022/04/19 05:16:37;;;;;;;17.67;11.55;;;;;;;;;;5065449;28;20052;-66
2022/04/19 05:19:04;;;;;;;18.75;11.77;;;;;;;;;;5059067;28;20052;-67
2022/04/19 05:21:30;;;;;;;19.02;11.30;;;;;;;;;;5080710;28;20066;-67
2022/04/19 05:23:56;;;;;;;16.33;11.10;;;;;;;;;;5066375;28;20048;-67
2022/04/19 05:26:24;;;;;;;17.60;11.52;;;;;;;;;;5069769;28;20056;-67
2022/04/19 05:28:51;;;;;;;17.00;10.55;;;;;;;;;;5056075;28;20425;-67
2022/04/19 05:31:17;;;;;;;18.20;12.10;;;;;;;;;;5070002;28;20048;-66
2022/04/19 05:33:43;;;;;;;17.23;11.27;;;;;;;;;;5070435;28;20040;-67
2022/04/19 05:36:09;;;;;;;16.23;11.25;;;;;;;;;;5067252;28;20508;-67
2022/04/19 05:38:36;;;;;;;18.20;11.23;;;;;;;;;;5051767;28;20040;-67
2022/04/19 05:41:02;;;;;;;16.23;11.02;;;;;;;;;;5071316;28;20040;-67
2022/04/19 05:43:28;;;;;;;19.88;11.77;;;;;;;;;;5066295;28;20507;-66
2022/04/19 05:45:57;;;;;;;24.42;12.57;;;;;;;;;;5066148;28;20049;-67
2022/04/19 05:48:32;;;;;;;18.30;11.27;;;;;;;;;;5068127;28;20120;-67
2022/04/19 05:50:58;;;;;;;18.00;11.43;;;;;;;;;;5067062;28;20040;-67
2022/04/19 05:53:24;;;;;;;18.88;11.98;;;;;;;;;;5067751;28;20143;-67
2022/04/19 05:55:50;;;;;;;20.02;11.85;;;;;;;;;;5065146;28;20423;-68
2022/04/19 05:58:19;;;;;;;22.08;11.98;;;;;;;;;;5076248;28;20385;-67
2022/04/19 06:00:45;;;;;;;22.25;11.52;;;;;;;;;;5061857;28;20076;-67
2022/04/19 06:05:56;;;;;;;18.27;10.90;;;;;;;;;;5063228;28;20105;-67
2022/04/19 06:08:22;;;;;;;16.67;11.10;;;;;;;;;;5059142;28;20048;-67
2022/04/19 06:10:50;;;;;;;18.08;12.32;;;;;;;;;;5064773;28;20386;-67
2022/04/19 06:13:17;;;;;;;19.88;12.07;;;;;;;;;;5052257;28;20043;-68
2022/04/19 06:15:46;;;;;;;18.63;11.63;;;;;;;;;;5045939;28;20388;-66
2022/04/19 06:18:12;;;;;;;19.05;12.15;;;;;;;;;;5052583;28;20040;-67
2022/04/19 06:20:44;;;;;;;17.52;11.65;;;;;;;;;;5063336;28;20055;-69
2022/04/19 06:23:21;;;;;;;21.83;12.73;;;;;;;;;;5047462;28;20371;-69
2022/04/19 06:25:48;;;;;;;19.83;12.07;;;;;;;;;;5041039;28;20374;-69
2022/04/19 06:28:14;;;;;;;20.42;11.90;;;;;;;;;;5056709;28;20037;-69
2022/04/19 06:30:40;;;;;;;22.70;12.85;;;;;;;;;;5060365;28;20062;-69
2022/04/19 06:33:06;;;;;;;21.63;12.15;;;;;;;;;;5061706;28;20124;-69
2022/04/19 06:35:32;;;;;;;20.25;12.18;;;;;;;;;;5041167;28;20036;-69
2022/04/19 06:37:58;;;;;;;18.52;11.98;;;;;;;;;;5036131;28;20123;-67
2022/04/19 06:40:24;;;;;;;21.27;12.43;;;;;;;;;;5069710;28;20033;-69
2022/04/19 06:42:50;;;;;;;16.92;10.73;;;;;;;;;;5060922;28;20040;-67
2022/04/19 06:45:17;;;;;;;16.85;11.07;;;;;;;;;;5073395;28;20400;-69
2022/04/19 06:47:44;;;;;;;17.42;11.18;;;;;;;;;;5068392;28;20040;-69
2022/04/19 06:50:10;;;;;;;17.50;11.57;;;;;;;;;;5063257;28;20397;-68
2022/04/19 06:52:36;;;;;;;15.88;11.13;;;;;;;;;;5055825;28;20084;-67
2022/04/19 06:55:03;;;;;;;16.17;11.75;;;;;;;;;;5060103;28;20441;-68
2022/04/19 06:57:29;;;;;;;19.58;12.55;;;;;;;;;;5077549;28;20041;-68
2022/04/19 06:59:56;;;;;;;18.67;11.25;;;;;;;;;;5078480;28;20089;-68
2022/04/19 07:02:22;;;;;;;19.63;12.43;;;;;;;;;;5071255;28;20036;-68
2022/04/19 07:04:48;;;;;;;17.67;11.50;;;;;;;;;;5046237;28;20037;-68
2022/04/19 07:07:14;;;;;;;16.60;11.57;;;;;;;;;;5070834;28;20449;-68
2022/04/19 07:09:40;;;;;;;21.50;11.05;;;;;;;;;;5071057;28;20045;-68
2022/04/19 07:12:07;;;;;;;18.92;11.05;;;;;;;;;;5077894;28;20071;-68
2022/04/19 07:14:33;;;;;;;14.32;10.65;;;;;;;;;;5085067;28;20107;-69
2022/04/19 07:16:59;;;;;;;17.98;10.60;;;;;;;;;;5072175;28;21337;-68
2022/04/19 07:19:25;;;;;;;19.30;10.95;;;;;;;;;;5063110;28;20116;-69
2022/04/19 07:27:23;;;;;;;14.85;10.27;;;;;;;;;;5069819;28;20063;-69
2022/04/19 07:29:49;;;;;;;15.95;9.55;;;;;;;;;;5064377;28;20051;-68
2022/04/19 07:32:15;;;;;;;12.82;8.93;;;;;;;;;;5068539;28;20089;-68
2022/04/19 07:34:41;;;;;;;14.68;8.93;;;;;;;;;;5069797;28;20056;-69
2022/04/19 07:37:07;;;;;;;12.73;8.60;;;;;;;;;;5063342;28;20044;-69
2022/04/19 07:39:34;;;;;;;13.48;8.80;;;;;;;;;;5077510;28;20120;-69
2022/04/19 07:42:00;;;;;;;14.55;8.75;;;;;;;;;;5072669;28;20051;-69
2022/04/19 07:44:29;;;;;;;12.63;8.18;;;;;;;;;;5039060;28;20043;-69
2022/04/19 07:46:55;;;;;;;12.50;8.27;;;;;;;;;;5069931;28;20045;-69
2022/04/19 07:49:21;;;;;;;13.38;8.63;;;;;;;;;;5062659;28;20124;-69
2022/04/19 07:51:47;;;;;;;13.18;8.15;;;;;;;;;;5060476;28;20036;-69
2022/04/19 07:54:13;;;;;;;11.90;7.32;;;;;;;;;;5068371;28;20086;-69
2022/04/19 07:56:40;;;;;;;10.90;7.70;;;;;;;;;;5058293;28;20041;-69
2022/04/19 07:59:06;;;;;;;12.18;7.47;;;;;;;;;;5064329;28;20037;-69
2022/04/19 08:01:32;;;;;;;10.43;7.25;;;;;;;;;;5068536;28;20036;-69
2022/04/19 08:03:58;;;;;;;10.55;7.70;;;;;;;;;;5064500;28;20121;-69
2022/04/19 08:06:24;;;;;;;11.18;7.70;;;;;;;;;;5069838;28;20036;-69
2022/04/19 08:08:51;;;;;;;14.57;7.78;;;;;;;;;;5075401;28;20036;-69
2022/04/19 08:11:17;;;;;;;11.30;6.90;;;;;;;;;;5068731;28;20122;-69
2022/04/19 08:13:43;;;;;;;11.45;7.78;;;;;;;;;;5079206;28;20496;-69
2022/04/19 08:16:09;;;;;;;14.57;7.38;;;;;;;;;;5064806;28;20041;-69
2022/04/19 08:18:35;;;;;;;11.40;7.32;;;;;;;;;;5069030;28;20102;-69
2022/04/19 08:21:01;;;;;;;12.25;6.82;;;;;;;;;;5060786;28;20040;-70
2022/04/19 08:23:27;;;;;;;10.50;6.78;;;;;;;;;;5048590;28;20044;-69
2022/04/19 08:25:53;;;;;;;12.40;7.00;;;;;;;;;;5068122;28;20043;-69
2022/04/19 08:28:19;;;;;;;11.10;7.13;;;;;;;;;;5067126;28;20545;-69
2022/04/19 08:30:45;;;;;;;11.57;6.97;;;;;;;;;;5064881;28;20048;-69
2022/04/19 08:33:11;;;;;;;11.30;6.80;;;;;;;;;;5064050;28;20056;-69
2022/04/19 08:35:37;;;;;;;13.85;7.10;;;;;;;;;;5070582;28;20108;-70
2022/04/19 08:38:03;;;;;;;10.88;7.43;;;;;;;;;;5068676;28;20037;-70
2022/04/19 08:40:32;;;;;;;11.48;6.80;;;;;;;;;;5071638;28;20396;-69
2022/04/19 08:42:59;;;;;;;12.55;7.13;;;;;;;;;;5063396;28;20037;-69
2022/04/19 08:45:26;;;;;;;12.57;6.45;;;;;;;;;;5074646;28;20071;-69
2022/04/19 08:47:53;;;;;;;9.82;6.07;;;;;;;;;;5073120;28;20507;-69
2022/04/19 08:50:20;;;;;;;10.50;6.93;;;;;;;;;;5068638;28;20041;-70
2022/04/19 08:52:47;;;;;;;10.52;6.80;;;;;;;;;;5063122;28;20044;-69
2022/04/19 08:57:58;;;;;;;9.73;6.38;;;;;;;;;;5056169;28;20047;-69
2022/04/19 09:00:25;;;;;;;9.82;5.65;;;;;;;;;;5070152;28;20369;-69
2022/04/19 09:02:52;;;;;;;10.45;6.30;;;;;;;;;;5054915;28;20040;-69
2022/04/19 09:05:18;;;;;;;8.55;5.38;;;;;;;;;;5057884;28;20032;-69
2022/04/19 09:07:45;;;;;;;7.82;5.28;;;;;;;;;;5065485;28;20431;-69
2022/04/19 09:10:15;;;;;;;8.20;5.07;;;;;;;;;;5062267;28;20029;-69
2022/04/19 09:12:57;;;;;;;8.50;5.18;;;;;;;;;;5050132;28;20051;-69
2022/04/19 09:15:23;;;;;;;8.45;5.05;;;;;;;;;;5039316;28;20095;-70
2022/04/19 09:17:50;;;;;;;7.50;4.47;;;;;;;;;;5072779;28;20485;-69
2022/04/19 09:20:19;;;;;;;8.23;4.93;;;;;;;;;;5056885;28;20044;-69
2022/04/19 09:22:48;;;;;;;9.27;4.68;;;;;;;;;;5065277;28;20497;-69
2022/04/19 09:25:18;;;;;;;8.50;4.55;;;;;;;;;;5074144;28;20043;-69
2022/04/19 09:27:45;;;;;;;8.02;4.53;;;;;;;;;;5038610;28;20048;-69
2022/04/19 09:30:16;;;;;;;8.15;4.60;;;;;;;;;;5058348;28;20045;-69
2022/04/19 09:32:43;;;;;;;7.70;4.65;;;;;;;;;;5059604;28;20045;-69
2022/04/19 09:35:09;;;;;;;8.30;4.38;;;;;;;;;;5058108;28;20512;-69
2022/04/19 09:37:35;;;;;;;7.05;3.95;;;;;;;;;;5061626;28;20052;-70
2022/04/19 09:40:01;;;;;;;8.75;4.30;;;;;;;;;;5056429;28;20036;-69
2022/04/19 09:42:27;;;;;;;10.55;5.03;;;;;;;;;;5049773;28;20036;-70
2022/04/19 09:44:53;;;;;;;7.78;4.70;;;;;;;;;;5044268;28;20139;-70
2022/04/19 09:47:20;;;;;;;8.18;4.68;;;;;;;;;;5064148;28;20052;-70
2022/04/19 09:49:53;;;;;;;7.93;4.65;;;;;;;;;;5062715;28;20081;-70
2022/04/19 09:52:22;;;;;;;7.22;4.63;;;;;;;;;;5062346;28;20044;-69
2022/04/19 09:55:05;;;;;;;8.45;5.40;;;;;;;;;;5059025;28;20052;-69
2022/04/19 09:57:32;;;;;;;7.88;5.15;;;;;;;;;;5060742;28;20496;-69
2022/04/19 09:59:59;;;;;;;8.68;5.18;;;;;;;;;;5059086;28;20178;-70
2022/04/19 10:10:42;;;;;;;7.63;4.60;;;;;;;;;;5062955;28;20103;-69
2022/04/19 10:13:08;;;;;;;5.63;4.00;;;;;;;;;;5061037;28;20852;-68
2022/04/19 10:15:35;;;;;;;5.43;3.92;;;;;;;;;;5063140;28;20052;-69
2022/04/19 10:18:04;;;;;;;4.25;2.40;;;;;;;;;;5048117;28;20044;-68
2022/04/19 10:20:32;;;;;;;3.78;2.88;;;;;;;;;;5063019;28;20063;-70
2022/04/19 10:23:05;;;;;;;5.60;3.25;;;;;;;;;;5064429;28;20507;-68
2022/04/19 10:25:49;;;;;;;5.00;3.30;;;;;;;;;;5062697;28;20056;-67
2022/04/19 10:28:30;;;;;;;4.68;2.90;;;;;;;;;;5064132;28;20059;-69
2022/04/19 10:30:56;;;;;;;6.55;3.38;;;;;;;;;;5050400;28;20048;-70
2022/04/19 10:33:41;;;;;;;4.22;2.85;;;;;;;;;;5066803;28;20040;-72
2022/04/19 10:36:23;;;;;;;3.67;2.63;;;;;;;;;;5066061;28;20044;-69
2022/04/19 10:39:08;;;;;;;4.90;2.28;;;;;;;;;;5065623;28;20036;-69
2022/04/19 10:41:47;;;;;;;6.50;2.53;;;;;;;;;;5066222;28;20072;-70
2022/04/19 10:44:36;;;;;;;4.13;2.45;;;;;;;;;;5064549;28;20044;-69
2022/04/19 10:47:02;;;;;;;3.17;1.90;;;;;;;;;;5058518;28;20045;-69
2022/04/19 10:49:28;;;;;;;4.72;2.10;;;;;;;;;;5061969;28;20575;-69
2022/04/19 10:51:59;;;;;;;4.07;2.13;;;;;;;;;;5067538;28;20052;-69
2022/04/19 10:54:44;;;;;;;2.33;1.67;;;;;;;;;;5050798;28;20040;-69
2022/04/19 11:00:23;;;;;;;5.15;2.10;;;;;;;;;;5062565;28;20045;-69
2022/04/19 11:02:49;;;;;;;;;;;;;;;;;;5046603;28;20052;-69
2022/04/19 11:05:34;;;;;;;3.75;2.47;;;;;;;;;;5051489;28;19917;-68
2022/04/19 11:08:19;;;;;;;3.58;2.50;;;;;;;;;;5066922;28;20052;-69
2022/04/19 11:10:45;;;;;;;7.03;2.38;;;;;;;;;;5065995;28;20043;-69
2022/04/19 11:13:14;;;;;;;4.10;2.20;;;;;;;;;;5067022;28;20045;-69
2022/04/19 11:15:42;;;;;;;7.00;2.60;;;;;;;;;;5067871;28;20046;-69
2022/04/19 11:18:26;;;;;;;4.10;2.30;;;;;;;;;;5066046;28;20040;-68
2022/04/19 11:20:57;;;;;;;3.33;2.33;;;;;;;;;;5068531;28;20119;-69
2022/04/19 11:23:24;;;;;;;3.70;2.08;;;;;;;;;;5066529;28;20053;-69
2022/04/19 11:25:51;;;;;;;2.97;2.20;;;;;;;;;;5068107;28;20496;-69
2022/04/19 11:28:17;;;;;;;3.35;1.83;;;;;;;;;;5048169;28;20044;-68
2022/04/19 11:30:44;;;;;;;3.92;2.10;;;;;;;;;;5070006;28;20032;-69
2022/04/19 11:33:10;;;;;;;6.13;2.65;;;;;;;;;;5068970;28;20040;-69
2022/04/19 11:35:36;;;;;;;3.40;2.25;;;;;;;;;;5068670;28;20086;-69
2022/04/19 11:38:03;;;;;;;2.72;1.70;;;;;;;;;;5067397;28;20036;-69
2022/04/19 11:48:48;;;;;;;3.00;1.60;;;;;;;;;;5068210;28;20068;-69
2022/04/19 11:51:15;;;;;;;3.65;1.63;;;;;;;;;;5064168;28;20041;-68
2022/04/19 11:53:42;;;;;;;5.63;2.30;;;;;;;;;;5067180;28;20071;-69
2022/04/19 11:56:09;;;;;;;3.75;2.17;;;;;;;;;;5068685;28;20078;-69
2022/04/19 11:58:39;;;;;;;3.67;1.83;;;;;;;;;;5064347;28;20140;-68
2022/04/19 12:01:06;;;;;;;2.92;2.00;;;;;;;;;;5063241;28;20045;-68
2022/04/19 12:03:33;;;;;;;2.42;1.80;;;;;;;;;;5066825;28;20040;-69
2022/04/19 12:06:16;;;;;;;3.78;1.90;;;;;;;;;;5067902;28;20127;-68
2022/04/19 12:08:43;;;;;;;4.57;1.92;;;;;;;;;;5066777;28;20040;-69
2022/04/19 12:11:10;;;;;;;6.20;2.10;;;;;;;;;;5065824;28;20505;-69
2022/04/19 12:13:37;;;;;;;3.58;1.88;;;;;;;;;;5065723;28;20527;-70
2022/04/19 12:16:06;;;;;;;3.97;1.80;;;;;;;;;;5066960;28;20036;-69
2022/04/19 12:18:33;;;;;;;2.88;1.70;;;;;;;;;;5065212;28;20079;-69
2022/04/19 12:21:00;;;;;;;6.43;1.60;;;;;;;;;;5066579;28;20052;-70
2022/04/19 12:23:26;;;;;;;2.65;1.75;;;;;;;;;;5064246;28;20047;-69
2022/04/19 12:26:03;;;;;;;6.00;1.73;;;;;;;;;;5066312;28;20052;-69
2022/04/19 12:28:43;;;;;;;2.65;1.55;;;;;;;;;;5064096;28;20051;-70
2022/04/19 12:31:09;;;;;;;3.28;1.70;;;;;;;;;;5064196;28;20055;-69
2022/04/19 12:33:52;;;;;;;2.15;1.60;;;;;;;;;;5065226;28;20037;-69
2022/04/19 12:36:22;;;;;;;2.10;1.60;;;;;;;;;;5080570;28;20074;-69
2022/04/19 12:38:57;;;;;;;3.30;1.45;;;;;;;;;;5065293;28;20048;-69
2022/04/19 12:41:32;;;;;;;5.43;1.58;;;;;;;;;;5062903;28;20063;-70
2022/04/19 12:44:01;;;;;;;2.65;1.50;;;;;;;;;;5064678;28;20040;-69
2022/04/19 12:46:27;;;;;;;4.75;1.40;;;;;;;;;;5064151;28;20056;-70
2022/04/19 12:48:53;;;;;;;2.58;1.38;;;;;;;;;;5046583;28;20453;-69
2022/04/19 12:51:26;;;;;;;1.90;1.48;;;;;;;;;;5064893;28;20093;-70
2022/04/19 12:54:02;;;;;;;2.00;1.50;;;;;;;;;;5067114;28;20044;-70
2022/04/19 12:56:28;;;;;;;2.75;1.48;;;;;;;;;;5063926;28;20049;-69
2022/04/19 12:58:54;;;;;;;2.33;1.58;;;;;;;;;;5064662;28;20071;-70
2022/04/19 13:01:20;;;;;;;2.28;1.70;;;;;;;;;;5060802;28;20650;-70
2022/04/19 13:03:46;;;;;;;2.53;1.52;;;;;;;;;;5065105;28;20562;-70
2022/04/19 13:14:27;;;;;;;4.05;1.55;;;;;;;;;;5067165;28;20504;-70
2022/04/19 13:16:53;;;;;;;2.83;1.55;;;;;;;;;;5063593;28;20033;-69
2022/04/19 13:19:20;;;;;;;6.35;1.80;;;;;;;;;;5061576;28;20048;-70
2022/04/19 13:21:46;;;;;;;2.85;1.55;;;;;;;;;;5052142;28;20555;-70
2022/04/19 13:24:12;;;;;;;2.67;2.00;;;;;;;;;;5056308;28;20076;-70
2022/04/19 13:26:38;;;;;;;3.13;2.00;;;;;;;;;;5058428;28;20120;-70
2022/04/19 13:29:04;;;;;;;4.20;2.00;;;;;;;;;;5050933;28;20052;-70
2022/04/19 13:31:31;;;;;;;3.45;1.70;;;;;;;;;;5068339;28;20040;-70
2022/04/19 13:33:57;;;;;;;2.33;1.50;;;;;;;;;;5053832;28;20056;-71
2022/04/19 13:36:24;;;;;;;3.05;1.90;;;;;;;;;;5057283;28;20120;-70
2022/04/19 13:38:50;;;;;;;3.10;2.13;;;;;;;;;;5068926;28;20234;-70
2022/04/19 13:41:16;;;;;;;3.13;2.03;;;;;;;;;;5066907;28;20097;-70
2022/04/19 13:43:43;;;;;;;4.07;1.50;;;;;;;;;;5068740;28;20087;-71
2022/04/19 13:46:09;;;;;;;2.88;1.73;;;;;;;;;;5051660;28;20045;-71
2022/04/19 13:48:36;;;;;;;3.83;1.45;;;;;;;;;;5073047;28;20103;-70
2022/04/19 13:51:02;;;;;;;3.47;1.50;;;;;;;;;;5074106;28;20555;-71
2022/04/19 13:53:28;;;;;;;4.20;1.63;;;;;;;;;;5056316;28;20128;-71
2022/04/19 13:55:54;;;;;;;3.30;1.67;;;;;;;;;;5033904;28;20466;-71
2022/04/19 13:58:20;;;;;;;3.00;1.85;;;;;;;;;;5060491;28;20064;-70
2022/04/19 14:00:46;;;;;;;3.28;2.25;;;;;;;;;;5059184;28;20066;-70
2022/04/19 14:03:12;;;;;;;2.45;1.80;;;;;;;;;;5044944;28;20036;-71
2022/04/19 14:05:38;;;;;;;3.00;1.83;;;;;;;;;;5061509;28;20079;-70
2022/04/19 14:08:05;;;;;;;4.25;2.20;;;;;;;;;;5064218;28;20060;-70
2022/04/19 14:10:31;;;;;;;4.55;2.00;;;;;;;;;;5086414;28;20504;-71
2022/04/19 14:12:57;;;;;;;2.53;1.90;;;;;;;;;;5056859;28;20166;-71
2022/04/19 14:15:23;;;;;;;2.58;1.88;;;;;;;;;;5072636;28;20506;-71
2022/04/19 14:17:49;;;;;;;4.13;2.28;;;;;;;;;;5041713;28;20480;-71
2022/04/19 14:20:16;;;;;;;6.05;2.13;;;;;;;;;;5062172;28;20043;-71
2022/04/19 14:22:42;;;;;;;3.28;2.00;;;;;;;;;;5061053;28;20037;-70
2022/04/19 14:25:08;;;;;;;4.60;2.00;;;;;;;;;;5068925;28;20119;-71
2022/04/19 14:27:34;;;;;;;4.93;2.20;;;;;;;;;;5087154;28;20060;-70
2022/04/19 14:35:29;;;;;;;3.92;2.25;;;;;;;;;;5061907;28;20051;-70
2022/04/19 14:37:55;;;;;;;3.20;2.40;;;;;;;;;;5066475;28;20427;-71
2022/04/19 14:40:21;;;;;;;3.35;2.50;;;;;;;;;;5057458;28;20451;-71
2022/04/19 14:42:47;;;;;;;2.88;2.20;;;;;;;;;;5069528;28;20500;-70
2022/04/19 14:45:13;;;;;;;6.07;2.70;;;;;;;;;;5065838;28;20053;-70
2022/04/19 14:47:40;;;;;;;5.15;2.60;;;;;;;;;;5061474;28;20091;-70
2022/04/19 14:50:06;;;;;;;4.30;2.20;;;;;;;;;;5067436;28;20413;-71
2022/04/19 14:52:33;;;;;;;4.07;2.58;;;;;;;;;;5073603;28;21708;-70
2022/04/19 14:55:00;;;;;;;3.42;2.70;;;;;;;;;;5061092;28;20041;-71
2022/04/19 14:57:27;;;;;;;4.20;2.60;;;;;;;;;;5073953;28;20429;-71
2022/04/19 14:59:53;;;;;;;3.75;2.53;;;;;;;;;;5065467;28;20474;-71
2022/04/19 15:02:21;;;;;;;3.80;2.40;;;;;;;;;;5054607;28;20051;-71
2022/04/19 15:04:47;;;;;;;3.53;2.30;;;;;;;;;;5061947;28;20037;-70
2022/04/19 15:07:13;;;;;;;3.22;2.30;;;;;;;;;;5070133;28;20051;-70
2022/04/19 15:09:42;;;;;;;4.93;2.13;;;;;;;;;;5064113;28;20033;-71
2022/04/19 15:12:08;;;;;;;4.68;2.45;;;;;;;;;;5074745;28;20094;-71
2022/04/19 15:14:35;;;;;;;4.72;2.42;;;;;;;;;;5062155;28;20052;-69
2022/04/19 15:17:02;;;;;;;2.72;2.03;;;;;;;;;;5067399;28;20044;-70
2022/04/19 15:19:28;;;;;;;8.13;2.22;;;;;;;;;;5060503;28;20040;-70
2022/04/19 15:21:54;;;;;;;3.10;2.05;;;;;;;;;;5077524;28;20052;-71
2022/04/19 15:24:22;;;;;;;4.38;2.00;;;;;;;;;;5059290;28;20051;-71
2022/04/19 15:26:48;;;;;;;2.60;2.00;;;;;;;;;;5058955;28;20048;-70
2022/04/19 15:29:15;;;;;;;4.72;1.85;;;;;;;;;;5050830;28;20059;-71
2022/04/19 15:31:41;;;;;;;3.72;1.83;;;;;;;;;;5065686;28;20075;-71
2022/04/19 15:34:07;;;;;;;5.18;2.13;;;;;;;;;;5069898;28;20037;-71